sensor_id;sensor_type;location;lat;lon;timestamp;pressure;altitude;pressure_sealevel;temperature;humidity
6829;BME280;17930;48.592;8.868;2022-08-19T00:01:17;96383.94;;;20.66;100.00
6829;BME280;17930;48.592;8.868;2022-08-19T00:03:44;96372.44;;;20.74;100.00
6829;BME280;17930;48.592;8.868;2022-08-19T00:06:11;96373.34;;;20.66;100.00
6829;BME280;17930;48.592;8.868;2022-08-19T00:08:40;96376.34;;;20.65;100.00
6829;BME280;17930;48.592;8.868;2022-08-19T00:11:07;96373.97;;;20.75;100.00
6829;BME280;17930;48.592;8.868;2022-08-19T00:13:34;96378.84;;;20.73;100.00
6829;BME280;17930;48.592;8.868;2022-08-19T00:16:01;96378.94;;;20.77;100.00
6829;BME280;17930;48.592;8.868;2022-08-19T00:18:28;96377.47;;;20.79;100.00
6829;BME280;17930;48.592;8.868;2022-08-19T00:20:54;96372.25;;;20.83;100.00
6829;BME280;17930;48.592;8.868;2022-08-19T00:23:21;96361.41;;;20.72;100.00
6829;BME280;17930;48.592;8.868;2022-08-19T00:25:49;96358.06;;;20.75;100.00
6829;BME280;17930;48.592;8.868;2022-08-19T00:28:16;96368.22;;;20.73;100.00
6829;BME280;17930;48.592;8.868;2022-08-19T00:30:43;96361.81;;;20.74;100.00
6829;BME280;17930;48.592;8.868;2022-08-19T00:33:09;96354.38;;;20.64;100.00
6829;BME280;17930;48.592;8.868;2022-08-19T00:35:36;96349.00;;;20.61;100.00
6829;BME280;17930;48.592;8.868;2022-08-19T00:38:04;96350.53;;;20.47;100.00
6829;BME280;17930;48.592;8.868;2022-08-19T00:40:31;96348.84;;;20.39;100.00
6829;BME280;17930;48.592;8.868;2022-08-19T00:42:59;96360.81;;;20.33;100.00
6829;BME280;17930;48.592;8.868;2022-08-19T00:45:28;96364.16;;;20.30;100.00
6829;BME280;17930;48.592;8.868;2022-08-19T00:47:57;96366.00;;;20.14;100.00
6829;BME280;17930;48.592;8.868;2022-08-19T00:50:27;96376.00;;;20.20;100.00
6829;BME280;17930;48.592;8.868;2022-08-19T00:52:55;96376.88;;;20.09;100.00
6829;BME280;17930;48.592;8.868;2022-08-19T00:55:24;96374.25;;;19.97;100.00
6829;BME280;17930;48.592;8.868;2022-08-19T00:57:59;96376.75;;;19.90;100.00
6829;BME280;17930;48.592;8.868;2022-08-19T01:00:29;96374.88;;;19.79;100.00
6829;BME280;17930;48.592;8.868;2022-08-19T01:02:56;96368.41;;;19.76;100.00
6829;BME280;17930;48.592;8.868;2022-08-19T01:05:26;96370.06;;;19.69;100.00
6829;BME280;17930;48.592;8.868;2022-08-19T01:07:54;96376.09;;;19.81;100.00
6829;BME280;17930;48.592;8.868;2022-08-19T01:10:25;96372.66;;;19.65;100.00
6829;BME280;17930;48.592;8.868;2022-08-19T01:12:54;96371.53;;;19.66;100.00
6829;BME280;17930;48.592;8.868;2022-08-19T01:15:26;96365.59;;;19.57;100.00
6829;BME280;17930;48.592;8.868;2022-08-19T01:17:55;96360.31;;;19.57;100.00
6829;BME280;17930;48.592;8.868;2022-08-19T01:20:24;96360.78;;;19.48;100.00
6829;BME280;17930;48.592;8.868;2022-08-19T01:22:54;96361.25;;;19.50;100.00
6829;BME280;17930;48.592;8.868;2022-08-19T01:25:24;96361.38;;;19.41;100.00
6829;BME280;17930;48.592;8.868;2022-08-19T01:27:53;96362.88;;;19.27;100.00
6829;BME280;17930;48.592;8.868;2022-08-19T01:30:23;96354.28;;;19.18;100.00
6829;BME280;17930;48.592;8.868;2022-08-19T01:32:51;96349.66;;;19.15;100.00
6829;BME280;17930;48.592;8.868;2022-08-19T01:35:20;96353.66;;;18.97;100.00
6829;BME280;17930;48.592;8.868;2022-08-19T01:37:53;96350.94;;;18.82;100.00
6829;BME280;17930;48.592;8.868;2022-08-19T01:40:22;96353.59;;;18.82;100.00
6829;BME280;17930;48.592;8.868;2022-08-19T01:42:50;96355.22;;;18.74;100.00
6829;BME280;17930;48.592;8.868;2022-08-19T01:45:18;96347.44;;;18.66;100.00
6829;BME280;17930;48.592;8.868;2022-08-19T01:47:46;96341.81;;;18.55;100.00
6829;BME280;17930;48.592;8.868;2022-08-19T01:50:13;96339.75;;;18.49;100.00
6829;BME280;17930;48.592;8.868;2022-08-19T01:52:41;96336.53;;;18.55;100.00
6829;BME280;17930;48.592;8.868;2022-08-19T01:55:12;96342.25;;;18.46;100.00
6829;BME280;17930;48.592;8.868;2022-08-19T01:57:41;96343.91;;;18.50;100.00
6829;BME280;17930;48.592;8.868;2022-08-19T02:00:12;96348.97;;;18.43;100.00
6829;BME280;17930;48.592;8.868;2022-08-19T02:02:41;96348.19;;;18.54;100.00
6829;BME280;17930;48.592;8.868;2022-08-19T02:05:08;96350.75;;;18.51;100.00
6829;BME280;17930;48.592;8.868;2022-08-19T02:07:36;96349.19;;;18.50;100.00
6829;BME280;17930;48.592;8.868;2022-08-19T02:10:03;96345.88;;;18.53;100.00
6829;BME280;17930;48.592;8.868;2022-08-19T02:12:31;96338.53;;;18.47;100.00
6829;BME280;17930;48.592;8.868;2022-08-19T02:14:58;96342.06;;;18.50;100.00
6829;BME280;17930;48.592;8.868;2022-08-19T02:17:26;96340.06;;;18.48;100.00
6829;BME280;17930;48.592;8.868;2022-08-19T02:19:54;96340.25;;;18.54;100.00
6829;BME280;17930;48.592;8.868;2022-08-19T02:22:21;96341.59;;;18.48;100.00
6829;BME280;17930;48.592;8.868;2022-08-19T02:24:48;96342.38;;;18.49;100.00
6829;BME280;17930;48.592;8.868;2022-08-19T02:27:15;96338.31;;;18.40;100.00
6829;BME280;17930;48.592;8.868;2022-08-19T02:29:45;96335.78;;;18.31;100.00
6829;BME280;17930;48.592;8.868;2022-08-19T02:32:12;96336.31;;;18.25;100.00
6829;BME280;17930;48.592;8.868;2022-08-19T02:34:38;96335.66;;;18.28;100.00
6829;BME280;17930;48.592;8.868;2022-08-19T02:37:06;96332.25;;;18.27;100.00
6829;BME280;17930;48.592;8.868;2022-08-19T02:39:52;96329.28;;;18.29;100.00
6829;BME280;17930;48.592;8.868;2022-08-19T02:42:18;96326.84;;;18.36;100.00
6829;BME280;17930;48.592;8.868;2022-08-19T02:44:46;96323.22;;;18.28;100.00
6829;BME280;17930;48.592;8.868;2022-08-19T02:47:13;96326.97;;;18.27;100.00
6829;BME280;17930;48.592;8.868;2022-08-19T02:49:40;96326.75;;;18.32;100.00
6829;BME280;17930;48.592;8.868;2022-08-19T02:52:07;96325.75;;;18.37;100.00
6829;BME280;17930;48.592;8.868;2022-08-19T02:54:33;96331.25;;;18.32;100.00
6829;BME280;17930;48.592;8.868;2022-08-19T02:57:01;96339.06;;;18.28;100.00
6829;BME280;17930;48.592;8.868;2022-08-19T02:59:29;96336.09;;;18.30;100.00
6829;BME280;17930;48.592;8.868;2022-08-19T03:01:57;96332.03;;;18.32;100.00
6829;BME280;17930;48.592;8.868;2022-08-19T03:04:24;96341.38;;;18.42;100.00
6829;BME280;17930;48.592;8.868;2022-08-19T03:06:51;96334.56;;;18.41;100.00
6829;BME280;17930;48.592;8.868;2022-08-19T03:09:19;96325.97;;;18.55;100.00
6829;BME280;17930;48.592;8.868;2022-08-19T03:11:46;96329.38;;;18.56;100.00
6829;BME280;17930;48.592;8.868;2022-08-19T03:14:13;96328.84;;;18.50;100.00
6829;BME280;17930;48.592;8.868;2022-08-19T03:16:42;96332.78;;;18.56;100.00
6829;BME280;17930;48.592;8.868;2022-08-19T03:19:10;96331.03;;;18.60;100.00
6829;BME280;17930;48.592;8.868;2022-08-19T03:21:36;96326.84;;;18.59;100.00
6829;BME280;17930;48.592;8.868;2022-08-19T03:24:05;96324.63;;;18.73;100.00
6829;BME280;17930;48.592;8.868;2022-08-19T03:26:33;96317.38;;;18.70;100.00
6829;BME280;17930;48.592;8.868;2022-08-19T03:29:02;96320.22;;;18.65;100.00
6829;BME280;17930;48.592;8.868;2022-08-19T03:31:29;96317.59;;;18.65;100.00
6829;BME280;17930;48.592;8.868;2022-08-19T03:33:56;96319.88;;;18.67;100.00
6829;BME280;17930;48.592;8.868;2022-08-19T03:36:26;96319.47;;;18.65;100.00
6829;BME280;17930;48.592;8.868;2022-08-19T03:38:55;96321.66;;;18.63;100.00
6829;BME280;17930;48.592;8.868;2022-08-19T03:41:25;96314.06;;;18.61;100.00
6829;BME280;17930;48.592;8.868;2022-08-19T03:43:54;96320.00;;;18.58;100.00
6829;BME280;17930;48.592;8.868;2022-08-19T03:46:23;96322.88;;;18.53;100.00
6829;BME280;17930;48.592;8.868;2022-08-19T03:48:53;96322.22;;;18.56;100.00
6829;BME280;17930;48.592;8.868;2022-08-19T03:51:22;96327.50;;;18.56;100.00
6829;BME280;17930;48.592;8.868;2022-08-19T03:53:52;96328.81;;;18.62;100.00
6829;BME280;17930;48.592;8.868;2022-08-19T03:56:19;96338.97;;;18.60;100.00
6829;BME280;17930;48.592;8.868;2022-08-19T03:58:46;96339.63;;;18.57;100.00
6829;BME280;17930;48.592;8.868;2022-08-19T04:01:15;96345.75;;;18.61;100.00
6829;BME280;17930;48.592;8.868;2022-08-19T04:03:43;96340.47;;;18.61;100.00
6829;BME280;17930;48.592;8.868;2022-08-19T04:06:13;96350.16;;;18.69;100.00
6829;BME280;17930;48.592;8.868;2022-08-19T04:08:40;96338.63;;;18.62;100.00
6829;BME280;17930;48.592;8.868;2022-08-19T04:11:10;96341.81;;;18.55;100.00
6829;BME280;17930;48.592;8.868;2022-08-19T04:13:37;96340.16;;;18.51;100.00
6829;BME280;17930;48.592;8.868;2022-08-19T04:16:04;96349.41;;;18.45;100.00
6829;BME280;17930;48.592;8.868;2022-08-19T04:18:32;96344.47;;;18.44;100.00
6829;BME280;17930;48.592;8.868;2022-08-19T04:20:59;96341.59;;;18.48;100.00
6829;BME280;17930;48.592;8.868;2022-08-19T04:23:26;96344.78;;;18.54;100.00
6829;BME280;17930;48.592;8.868;2022-08-19T04:25:54;96347.19;;;18.71;100.00
6829;BME280;17930;48.592;8.868;2022-08-19T04:28:23;96343.47;;;18.72;100.00
6829;BME280;17930;48.592;8.868;2022-08-19T04:30:51;96343.13;;;18.73;100.00
6829;BME280;17930;48.592;8.868;2022-08-19T04:33:21;96340.91;;;18.75;100.00
6829;BME280;17930;48.592;8.868;2022-08-19T04:35:49;96336.50;;;18.79;100.00
6829;BME280;17930;48.592;8.868;2022-08-19T04:38:18;96339.56;;;18.81;100.00
6829;BME280;17930;48.592;8.868;2022-08-19T04:40:47;96340.25;;;18.78;100.00
6829;BME280;17930;48.592;8.868;2022-08-19T04:43:33;96344.09;;;18.81;100.00
6829;BME280;17930;48.592;8.868;2022-08-19T04:46:04;96343.75;;;18.82;100.00
6829;BME280;17930;48.592;8.868;2022-08-19T04:48:31;96332.09;;;18.83;100.00
6829;BME280;17930;48.592;8.868;2022-08-19T04:50:58;96342.00;;;18.86;100.00
6829;BME280;17930;48.592;8.868;2022-08-19T04:53:25;96338.03;;;18.92;100.00
6829;BME280;17930;48.592;8.868;2022-08-19T04:55:54;96346.06;;;18.96;100.00
6829;BME280;17930;48.592;8.868;2022-08-19T04:58:21;96344.44;;;19.03;100.00
6829;BME280;17930;48.592;8.868;2022-08-19T05:00:49;96348.16;;;19.14;100.00
6829;BME280;17930;48.592;8.868;2022-08-19T05:03:16;96357.06;;;19.09;100.00
6829;BME280;17930;48.592;8.868;2022-08-19T05:05:43;96361.84;;;19.04;100.00
6829;BME280;17930;48.592;8.868;2022-08-19T05:08:11;96361.59;;;19.09;100.00
6829;BME280;17930;48.592;8.868;2022-08-19T05:10:39;96374.00;;;19.20;100.00
6829;BME280;17930;48.592;8.868;2022-08-19T05:13:06;96364.88;;;19.18;100.00
6829;BME280;17930;48.592;8.868;2022-08-19T05:15:35;96374.69;;;19.17;100.00
6829;BME280;17930;48.592;8.868;2022-08-19T05:18:03;96380.41;;;19.19;100.00
6829;BME280;17930;48.592;8.868;2022-08-19T05:20:47;96387.56;;;19.19;100.00
6829;BME280;17930;48.592;8.868;2022-08-19T05:23:31;96394.06;;;19.21;100.00
6829;BME280;17930;48.592;8.868;2022-08-19T05:25:58;96393.75;;;19.23;100.00
6829;BME280;17930;48.592;8.868;2022-08-19T05:28:26;96406.63;;;19.24;100.00
6829;BME280;17930;48.592;8.868;2022-08-19T05:30:52;96409.63;;;19.23;100.00
6829;BME280;17930;48.592;8.868;2022-08-19T05:33:22;96415.31;;;19.37;100.00
6829;BME280;17930;48.592;8.868;2022-08-19T05:35:50;96420.16;;;19.35;100.00
6829;BME280;17930;48.592;8.868;2022-08-19T05:38:18;96419.06;;;19.36;100.00
6829;BME280;17930;48.592;8.868;2022-08-19T05:40:45;96424.56;;;19.43;100.00
6829;BME280;17930;48.592;8.868;2022-08-19T05:43:14;96427.00;;;19.36;100.00
6829;BME280;17930;48.592;8.868;2022-08-19T05:45:43;96431.19;;;19.37;100.00
6829;BME280;17930;48.592;8.868;2022-08-19T05:48:11;96434.69;;;19.41;100.00
6829;BME280;17930;48.592;8.868;2022-08-19T05:50:40;96434.81;;;19.44;100.00
6829;BME280;17930;48.592;8.868;2022-08-19T05:53:07;96434.03;;;19.44;100.00
6829;BME280;17930;48.592;8.868;2022-08-19T05:55:35;96434.25;;;19.39;100.00
6829;BME280;17930;48.592;8.868;2022-08-19T05:58:03;96434.34;;;19.42;100.00
6829;BME280;17930;48.592;8.868;2022-08-19T06:00:32;96427.88;;;19.40;100.00
6829;BME280;17930;48.592;8.868;2022-08-19T06:02:59;96425.31;;;19.43;100.00
6829;BME280;17930;48.592;8.868;2022-08-19T06:05:28;96419.00;;;19.59;100.00
6829;BME280;17930;48.592;8.868;2022-08-19T06:07:56;96422.75;;;19.58;100.00
6829;BME280;17930;48.592;8.868;2022-08-19T06:10:25;96422.66;;;19.55;100.00
6829;BME280;17930;48.592;8.868;2022-08-19T06:12:52;96424.28;;;19.59;100.00
6829;BME280;17930;48.592;8.868;2022-08-19T06:15:21;96427.81;;;19.52;100.00
6829;BME280;17930;48.592;8.868;2022-08-19T06:17:50;96429.38;;;19.52;100.00
6829;BME280;17930;48.592;8.868;2022-08-19T06:20:17;96424.97;;;19.56;100.00
6829;BME280;17930;48.592;8.868;2022-08-19T06:22:47;96441.03;;;19.63;100.00
6829;BME280;17930;48.592;8.868;2022-08-19T06:25:16;96428.03;;;19.58;100.00
6829;BME280;17930;48.592;8.868;2022-08-19T06:27:44;96424.28;;;19.59;100.00
6829;BME280;17930;48.592;8.868;2022-08-19T06:30:12;96427.16;;;19.54;100.00
6829;BME280;17930;48.592;8.868;2022-08-19T06:32:39;96425.72;;;19.57;100.00
6829;BME280;17930;48.592;8.868;2022-08-19T06:35:07;96429.81;;;19.54;100.00
6829;BME280;17930;48.592;8.868;2022-08-19T06:37:33;96417.44;;;19.58;100.00
6829;BME280;17930;48.592;8.868;2022-08-19T06:40:00;96427.47;;;19.65;100.00
6829;BME280;17930;48.592;8.868;2022-08-19T06:42:28;96427.22;;;19.70;100.00
6829;BME280;17930;48.592;8.868;2022-08-19T06:44:55;96437.38;;;19.68;100.00
6829;BME280;17930;48.592;8.868;2022-08-19T06:47:23;96435.28;;;19.73;100.00
6829;BME280;17930;48.592;8.868;2022-08-19T06:49:53;96437.22;;;19.88;100.00
6829;BME280;17930;48.592;8.868;2022-08-19T06:52:25;96432.53;;;19.97;100.00
6829;BME280;17930;48.592;8.868;2022-08-19T06:54:52;96438.47;;;20.06;100.00
6829;BME280;17930;48.592;8.868;2022-08-19T06:57:21;96435.84;;;20.21;100.00
6829;BME280;17930;48.592;8.868;2022-08-19T06:59:49;96441.91;;;20.22;100.00
6829;BME280;17930;48.592;8.868;2022-08-19T07:02:16;96440.03;;;20.22;100.00
6829;BME280;17930;48.592;8.868;2022-08-19T07:04:43;96447.41;;;20.29;100.00
6829;BME280;17930;48.592;8.868;2022-08-19T07:07:13;96449.63;;;20.57;100.00
6829;BME280;17930;48.592;8.868;2022-08-19T07:09:42;96446.56;;;20.56;100.00
6829;BME280;17930;48.592;8.868;2022-08-19T07:12:11;96451.00;;;20.52;100.00
6829;BME280;17930;48.592;8.868;2022-08-19T07:14:39;96461.44;;;20.45;100.00
6829;BME280;17930;48.592;8.868;2022-08-19T07:17:09;96459.13;;;20.43;100.00
6829;BME280;17930;48.592;8.868;2022-08-19T07:19:38;96461.44;;;20.45;100.00
6829;BME280;17930;48.592;8.868;2022-08-19T07:22:07;96463.91;;;20.38;100.00
6829;BME280;17930;48.592;8.868;2022-08-19T07:24:33;96471.28;;;20.44;100.00
6829;BME280;17930;48.592;8.868;2022-08-19T07:27:02;96471.44;;;20.51;100.00
6829;BME280;17930;48.592;8.868;2022-08-19T07:29:31;96461.69;;;20.55;100.00
6829;BME280;17930;48.592;8.868;2022-08-19T07:31:59;96458.53;;;20.65;100.00
6829;BME280;17930;48.592;8.868;2022-08-19T07:34:29;96461.59;;;20.52;100.00
6829;BME280;17930;48.592;8.868;2022-08-19T07:36:58;96466.56;;;20.68;100.00
6829;BME280;17930;48.592;8.868;2022-08-19T07:39:27;96460.19;;;20.69;100.00
6829;BME280;17930;48.592;8.868;2022-08-19T07:41:55;96461.38;;;20.72;100.00
6829;BME280;17930;48.592;8.868;2022-08-19T07:44:23;96459.59;;;20.76;100.00
6829;BME280;17930;48.592;8.868;2022-08-19T07:46:51;96458.19;;;20.97;100.00
6829;BME280;17930;48.592;8.868;2022-08-19T07:49:19;96460.94;;;21.16;100.00
6829;BME280;17930;48.592;8.868;2022-08-19T07:51:49;96471.28;;;20.90;100.00
6829;BME280;17930;48.592;8.868;2022-08-19T07:54:17;96461.38;;;20.87;100.00
6829;BME280;17930;48.592;8.868;2022-08-19T07:56:43;96455.88;;;21.11;100.00
6829;BME280;17930;48.592;8.868;2022-08-19T07:59:10;96454.50;;;21.17;100.00
6829;BME280;17930;48.592;8.868;2022-08-19T08:01:38;96454.00;;;21.46;100.00
6829;BME280;17930;48.592;8.868;2022-08-19T08:04:06;96452.81;;;21.59;100.00
6829;BME280;17930;48.592;8.868;2022-08-19T08:06:52;96452.41;;;21.75;100.00
6829;BME280;17930;48.592;8.868;2022-08-19T08:09:39;96445.94;;;21.58;100.00
6829;BME280;17930;48.592;8.868;2022-08-19T08:12:08;96458.09;;;21.59;100.00
6829;BME280;17930;48.592;8.868;2022-08-19T08:14:37;96457.41;;;21.62;100.00
6829;BME280;17930;48.592;8.868;2022-08-19T08:17:05;96464.03;;;21.52;100.00
6829;BME280;17930;48.592;8.868;2022-08-19T08:19:32;96457.97;;;21.52;100.00
6829;BME280;17930;48.592;8.868;2022-08-19T08:22:01;96462.88;;;21.68;100.00
6829;BME280;17930;48.592;8.868;2022-08-19T08:24:30;96460.97;;;21.88;100.00
6829;BME280;17930;48.592;8.868;2022-08-19T08:26:58;96458.09;;;21.96;100.00
6829;BME280;17930;48.592;8.868;2022-08-19T08:29:29;96458.41;;;21.91;100.00
6829;BME280;17930;48.592;8.868;2022-08-19T08:31:56;96456.84;;;22.09;100.00
6829;BME280;17930;48.592;8.868;2022-08-19T08:34:23;96460.72;;;22.30;100.00
6829;BME280;17930;48.592;8.868;2022-08-19T08:36:50;96459.50;;;22.28;100.00
6829;BME280;17930;48.592;8.868;2022-08-19T08:39:20;96464.13;;;22.31;100.00
6829;BME280;17930;48.592;8.868;2022-08-19T08:41:52;96468.19;;;22.47;100.00
6829;BME280;17930;48.592;8.868;2022-08-19T08:44:23;96471.00;;;22.54;100.00
6829;BME280;17930;48.592;8.868;2022-08-19T08:46:55;96461.25;;;22.62;100.00
6829;BME280;17930;48.592;8.868;2022-08-19T08:49:31;96461.06;;;22.73;100.00
6829;BME280;17930;48.592;8.868;2022-08-19T08:52:04;96464.06;;;22.50;100.00
6829;BME280;17930;48.592;8.868;2022-08-19T08:54:35;96476.28;;;22.73;100.00
6829;BME280;17930;48.592;8.868;2022-08-19T08:57:07;96477.31;;;22.46;100.00
6829;BME280;17930;48.592;8.868;2022-08-19T08:59:40;96468.25;;;22.28;100.00
6829;BME280;17930;48.592;8.868;2022-08-19T09:02:07;96477.25;;;22.43;100.00
6829;BME280;17930;48.592;8.868;2022-08-19T09:04:35;96474.59;;;22.43;100.00
6829;BME280;17930;48.592;8.868;2022-08-19T09:07:20;96468.16;;;22.44;100.00
6829;BME280;17930;48.592;8.868;2022-08-19T09:09:53;96475.38;;;22.65;100.00
6829;BME280;17930;48.592;8.868;2022-08-19T09:12:26;96478.16;;;22.50;100.00
6829;BME280;17930;48.592;8.868;2022-08-19T09:15:00;96477.25;;;22.43;100.00
6829;BME280;17930;48.592;8.868;2022-08-19T09:17:30;96477.91;;;22.36;100.00
6829;BME280;17930;48.592;8.868;2022-08-19T09:20:01;96483.63;;;22.19;100.00
6829;BME280;17930;48.592;8.868;2022-08-19T09:22:30;96482.94;;;22.22;100.00
6829;BME280;17930;48.592;8.868;2022-08-19T09:24:58;96485.75;;;22.11;100.00
6829;BME280;17930;48.592;8.868;2022-08-19T09:27:26;96484.50;;;22.23;100.00
6829;BME280;17930;48.592;8.868;2022-08-19T09:29:53;96479.84;;;22.20;100.00
6829;BME280;17930;48.592;8.868;2022-08-19T09:32:20;96489.88;;;22.27;100.00
6829;BME280;17930;48.592;8.868;2022-08-19T09:34:47;96483.34;;;22.43;100.00
6829;BME280;17930;48.592;8.868;2022-08-19T09:37:14;96491.31;;;22.43;100.00
6829;BME280;17930;48.592;8.868;2022-08-19T09:39:40;96487.75;;;22.36;100.00
6829;BME280;17930;48.592;8.868;2022-08-19T09:42:09;96495.72;;;22.36;100.00
6829;BME280;17930;48.592;8.868;2022-08-19T09:44:37;96494.81;;;22.10;100.00
6829;BME280;17930;48.592;8.868;2022-08-19T09:47:04;96496.69;;;21.90;100.00
6829;BME280;17930;48.592;8.868;2022-08-19T09:49:31;96492.38;;;22.01;100.00
6829;BME280;17930;48.592;8.868;2022-08-19T09:51:58;96501.53;;;22.04;100.00
6829;BME280;17930;48.592;8.868;2022-08-19T09:54:25;96505.22;;;21.99;100.00
6829;BME280;17930;48.592;8.868;2022-08-19T09:56:52;96509.97;;;22.09;100.00
6829;BME280;17930;48.592;8.868;2022-08-19T09:59:20;96507.41;;;22.13;100.00
6829;BME280;17930;48.592;8.868;2022-08-19T10:01:47;96504.72;;;22.28;100.00
6829;BME280;17930;48.592;8.868;2022-08-19T10:04:14;96512.38;;;22.14;100.00
6829;BME280;17930;48.592;8.868;2022-08-19T10:06:40;96508.47;;;22.08;100.00
6829;BME280;17930;48.592;8.868;2022-08-19T10:09:09;96511.53;;;22.10;100.00
6829;BME280;17930;48.592;8.868;2022-08-19T10:11:39;96511.66;;;22.17;100.00
6829;BME280;17930;48.592;8.868;2022-08-19T10:14:06;96515.03;;;22.14;100.00
6829;BME280;17930;48.592;8.868;2022-08-19T10:16:36;96519.09;;;22.08;100.00
6829;BME280;17930;48.592;8.868;2022-08-19T10:19:04;96516.59;;;22.15;100.00
6829;BME280;17930;48.592;8.868;2022-08-19T10:21:32;96520.63;;;22.09;100.00
6829;BME280;17930;48.592;8.868;2022-08-19T10:24:02;96520.63;;;22.09;100.00
6829;BME280;17930;48.592;8.868;2022-08-19T10:26:33;96526.41;;;22.14;100.00
6829;BME280;17930;48.592;8.868;2022-08-19T10:29:02;96520.94;;;22.23;100.00
6829;BME280;17930;48.592;8.868;2022-08-19T10:31:31;96521.91;;;22.15;100.00
6829;BME280;17930;48.592;8.868;2022-08-19T10:34:00;96517.69;;;22.14;100.00
6829;BME280;17930;48.592;8.868;2022-08-19T10:36:29;96523.94;;;22.40;100.00
6829;BME280;17930;48.592;8.868;2022-08-19T10:38:57;96522.00;;;22.60;100.00
6829;BME280;17930;48.592;8.868;2022-08-19T10:41:28;96515.84;;;22.56;100.00
6829;BME280;17930;48.592;8.868;2022-08-19T10:43:58;96507.19;;;22.59;100.00
6829;BME280;17930;48.592;8.868;2022-08-19T10:46:26;96497.47;;;22.69;100.00
6829;BME280;17930;48.592;8.868;2022-08-19T10:48:53;96501.78;;;22.96;100.00
6829;BME280;17930;48.592;8.868;2022-08-19T10:51:21;96498.81;;;23.01;100.00
6829;BME280;17930;48.592;8.868;2022-08-19T10:54:06;96505.78;;;23.09;100.00
6829;BME280;17930;48.592;8.868;2022-08-19T10:56:33;96504.75;;;22.95;100.00
6829;BME280;17930;48.592;8.868;2022-08-19T10:59:20;96500.69;;;22.78;100.00
6829;BME280;17930;48.592;8.868;2022-08-19T11:01:50;96495.19;;;22.90;100.00
6829;BME280;17930;48.592;8.868;2022-08-19T11:04:18;96490.22;;;23.11;100.00
6829;BME280;17930;48.592;8.868;2022-08-19T11:06:48;96503.94;;;22.91;100.00
6829;BME280;17930;48.592;8.868;2022-08-19T11:09:15;96498.63;;;23.13;100.00
6829;BME280;17930;48.592;8.868;2022-08-19T11:11:43;96490.53;;;23.06;100.00
6829;BME280;17930;48.592;8.868;2022-08-19T11:14:14;96491.03;;;23.15;100.00
6829;BME280;17930;48.592;8.868;2022-08-19T11:16:41;96490.38;;;23.47;100.00
6829;BME280;17930;48.592;8.868;2022-08-19T11:19:10;96493.00;;;23.44;100.00
6829;BME280;17930;48.592;8.868;2022-08-19T11:21:39;96496.38;;;23.41;100.00
6829;BME280;17930;48.592;8.868;2022-08-19T11:24:09;96479.59;;;23.37;100.00
6829;BME280;17930;48.592;8.868;2022-08-19T11:26:37;96484.91;;;23.37;100.00
6829;BME280;17930;48.592;8.868;2022-08-19T11:29:05;96495.06;;;23.54;100.00
6829;BME280;17930;48.592;8.868;2022-08-19T11:31:37;96498.13;;;23.30;100.00
6829;BME280;17930;48.592;8.868;2022-08-19T11:34:06;96494.03;;;23.36;100.00
6829;BME280;17930;48.592;8.868;2022-08-19T11:36:36;96502.50;;;23.19;100.00
6829;BME280;17930;48.592;8.868;2022-08-19T11:39:05;96499.31;;;23.32;100.00
6829;BME280;17930;48.592;8.868;2022-08-19T11:41:33;96495.88;;;23.58;100.00
6829;BME280;17930;48.592;8.868;2022-08-19T11:44:00;96495.44;;;23.56;100.00
6829;BME280;17930;48.592;8.868;2022-08-19T11:46:28;96499.41;;;23.39;100.00
6829;BME280;17930;48.592;8.868;2022-08-19T11:48:55;96493.81;;;23.22;100.00
6829;BME280;17930;48.592;8.868;2022-08-19T11:51:23;96493.47;;;23.49;100.00
6829;BME280;17930;48.592;8.868;2022-08-19T11:53:51;96496.66;;;23.62;100.00
6829;BME280;17930;48.592;8.868;2022-08-19T11:56:19;96488.06;;;23.46;100.00
6829;BME280;17930;48.592;8.868;2022-08-19T11:58:47;96500.47;;;23.61;100.00
6829;BME280;17930;48.592;8.868;2022-08-19T12:01:17;96492.78;;;23.56;100.00
6829;BME280;17930;48.592;8.868;2022-08-19T12:03:45;96480.41;;;23.41;100.00
6829;BME280;17930;48.592;8.868;2022-08-19T12:06:14;96497.25;;;23.48;100.00
6829;BME280;17930;48.592;8.868;2022-08-19T12:08:41;96491.28;;;23.84;100.00
6829;BME280;17930;48.592;8.868;2022-08-19T12:11:09;96492.81;;;24.14;100.00
6829;BME280;17930;48.592;8.868;2022-08-19T12:13:37;96480.19;;;24.40;100.00
6829;BME280;17930;48.592;8.868;2022-08-19T12:16:08;96483.94;;;24.75;100.00
6829;BME280;17930;48.592;8.868;2022-08-19T12:18:36;96483.72;;;24.94;100.00
6829;BME280;17930;48.592;8.868;2022-08-19T12:21:05;96475.91;;;25.15;100.00
6829;BME280;17930;48.592;8.868;2022-08-19T12:23:32;96480.72;;;25.46;100.00
6829;BME280;17930;48.592;8.868;2022-08-19T12:25:58;96473.81;;;25.45;100.00
6829;BME280;17930;48.592;8.868;2022-08-19T12:28:25;96468.94;;;25.61;100.00
6829;BME280;17930;48.592;8.868;2022-08-19T12:30:52;96468.19;;;25.64;100.00
6829;BME280;17930;48.592;8.868;2022-08-19T12:33:20;96474.38;;;25.68;100.00
6829;BME280;17930;48.592;8.868;2022-08-19T12:35:50;96479.09;;;25.98;100.00
6829;BME280;17930;48.592;8.868;2022-08-19T12:38:17;96465.13;;;25.58;100.00
6829;BME280;17930;48.592;8.868;2022-08-19T12:40:45;96467.25;;;25.28;100.00
6829;BME280;17930;48.592;8.868;2022-08-19T12:43:13;96462.25;;;25.87;100.00
6829;BME280;17930;48.592;8.868;2022-08-19T12:45:41;96458.69;;;26.72;100.00
6829;BME280;17930;48.592;8.868;2022-08-19T12:48:08;96465.56;;;26.76;100.00
6829;BME280;17930;48.592;8.868;2022-08-19T12:50:38;96456.00;;;27.27;100.00
6829;BME280;17930;48.592;8.868;2022-08-19T12:53:05;96460.97;;;26.83;100.00
6829;BME280;17930;48.592;8.868;2022-08-19T12:55:32;96457.16;;;26.81;100.00
6829;BME280;17930;48.592;8.868;2022-08-19T12:57:59;96460.97;;;26.90;100.00
6829;BME280;17930;48.592;8.868;2022-08-19T13:00:27;96467.09;;;27.39;100.00
6829;BME280;17930;48.592;8.868;2022-08-19T13:02:54;96461.72;;;27.36;100.00
6829;BME280;17930;48.592;8.868;2022-08-19T13:05:23;96462.53;;;27.37;100.00
6829;BME280;17930;48.592;8.868;2022-08-19T13:07:53;96454.69;;;28.11;96.94